Cornelia, Iowa
Current Conditions -  °F | °C
As of 12:15 PM on Sunday 25 Jan 2015 (Local Time) from KCAV Reporting Station
Overcast Overcast  
Wind Chill: 22°   Ceiling: 800
Heat Index: 32°   Visibility: 9mi
Dew Point: 32°   Wind: 14mph
Humidity: 100%   Direction: 40°NE
Pressure: 29.95"   Gusts: 20mph
Location:  42.7038°N, 93.7195°W
Report Text: KCAV 251815Z AUTO 04012G17KT 9SM OVC008 M00/M00 A2995 RMK AO2
Loading
Personal Weather Stations






























Interactive Weather Map New forecast layout! Learn more

10-Day Weather Forecast

Advertisements
Track Severe Weather on mobile